Time;durP1;ratioP1;P1;durP2;ratioP2;P2;SDS_P1;SDS_P2;PMS_P1;PMS_P2;Temp;Humidity;BMP_temperature;BMP_pressure;BME280_temperature;BME280_humidity;BME280_pressure;Samples;Min_cycle;Max_cycle;Signal;HPM_P1;HPM_P2
2021/10/09 00:01:44;;;;;;;11.45;7.30;;;6.40;99.90;;;;;;5076010;28;20250;-46
2021/10/09 00:04:11;;;;;;;10.32;5.95;;;6.30;99.90;;;;;;5078288;28;20237;-48
2021/10/09 00:06:39;;;;;;;10.60;6.80;;;6.40;99.90;;;;;;5073318;28;20202;-51
2021/10/09 00:09:06;;;;;;;12.15;7.75;;;6.40;99.90;;;;;;5080987;28;20209;-53
2021/10/09 00:11:36;;;;;;;12.82;7.38;;;6.30;99.90;;;;;;5078509;28;20195;-52
2021/10/09 00:14:08;;;;;;;10.30;6.90;;;6.20;99.90;;;;;;5093712;28;20225;-49
2021/10/09 00:16:37;;;;;;;13.95;6.55;;;6.30;99.90;;;;;;5084329;28;20372;-46
2021/10/09 00:19:04;;;;;;;8.27;6.70;;;6.20;99.90;;;;;;5093739;28;20205;-48
2021/10/09 00:21:32;;;;;;;7.65;6.35;;;6.20;99.90;;;;;;5096721;28;20430;-50
2021/10/09 00:24:00;;;;;;;11.73;7.18;;;6.20;99.90;;;;;;5084798;28;20255;-53
2021/10/09 00:26:28;;;;;;;13.23;7.35;;;6.20;99.90;;;;;;5070595;28;20202;-44
2021/10/09 00:28:55;;;;;;;9.32;6.35;;;6.20;99.90;;;;;;5068867;28;20248;-53
2021/10/09 00:31:22;;;;;;;8.73;7.00;;;6.00;99.90;;;;;;5069643;28;20245;-43
2021/10/09 00:33:49;;;;;;;8.10;6.97;;;6.10;99.90;;;;;;5079337;28;20230;-49
2021/10/09 00:36:17;;;;;;;10.57;8.40;;;6.20;99.90;;;;;;5075157;28;20198;-45
2021/10/09 00:38:44;;;;;;;9.02;6.35;;;6.10;99.90;;;;;;5098111;28;20226;-48
2021/10/09 00:41:11;;;;;;;9.88;6.90;;;6.10;99.90;;;;;;5079440;28;20257;-47
2021/10/09 00:43:38;;;;;;;10.02;7.25;;;6.30;99.90;;;;;;5082597;28;20272;-51
2021/10/09 00:46:06;;;;;;;13.13;7.55;;;6.20;99.90;;;;;;5082192;28;20194;-49
2021/10/09 00:48:34;;;;;;;11.25;7.10;;;6.10;99.90;;;;;;5068518;28;20234;-46
2021/10/09 00:51:04;;;;;;;8.80;6.57;;;6.20;99.90;;;;;;5080170;28;20199;-42
2021/10/09 00:53:33;;;;;;;10.95;7.30;;;6.20;99.90;;;;;;5068611;28;20214;-51
2021/10/09 00:56:01;;;;;;;9.60;7.45;;;6.20;99.90;;;;;;5066211;28;20308;-49
2021/10/09 00:58:29;;;;;;;12.50;7.15;;;6.00;99.90;;;;;;5081766;28;20237;-43
2021/10/09 01:00:57;;;;;;;10.95;7.40;;;6.00;99.90;;;;;;5075403;28;20207;-45
2021/10/09 01:03:25;;;;;;;8.18;6.32;;;5.90;99.90;;;;;;5073852;28;20225;-44
2021/10/09 01:05:52;;;;;;;13.88;7.22;;;6.00;99.90;;;;;;5082354;28;20197;-48
2021/10/09 01:08:19;;;;;;;8.75;6.82;;;6.00;99.90;;;;;;5068161;28;20234;-47
2021/10/09 01:10:47;;;;;;;8.30;6.18;;;5.80;99.90;;;;;;5064331;28;20521;-46
2021/10/09 01:13:14;;;;;;;8.82;6.72;;;5.80;99.90;;;;;;5067421;28;20264;-46
2021/10/09 01:15:42;;;;;;;9.32;7.40;;;5.80;99.90;;;;;;5070196;28;20205;-45
2021/10/09 01:18:16;;;;;;;8.73;7.13;;;5.70;99.90;;;;;;5069966;28;20545;-48
2021/10/09 01:21:01;;;;;;;10.77;6.55;;;5.70;99.90;;;;;;5065807;28;20202;-47
2021/10/09 01:23:30;;;;;;;13.25;6.63;;;5.60;99.90;;;;;;5061135;28;20553;-45
2021/10/09 01:25:57;;;;;;;7.90;6.13;;;5.60;99.90;;;;;;5061717;28;20206;-43
2021/10/09 01:28:25;;;;;;;17.77;8.80;;;5.50;99.90;;;;;;5071092;28;20448;-46
2021/10/09 01:30:55;;;;;;;17.48;7.88;;;5.40;99.90;;;;;;5075629;28;20248;-54
2021/10/09 01:33:22;;;;;;;8.57;7.20;;;5.60;99.90;;;;;;5066910;28;20454;-44
2021/10/09 01:35:55;;;;;;;10.35;7.68;;;5.50;99.90;;;;;;5066995;28;20210;-48
2021/10/09 01:38:25;;;;;;;13.95;8.10;;;5.60;99.90;;;;;;5078085;28;20230;-47
2021/10/09 01:40:53;;;;;;;11.48;8.05;;;5.50;99.90;;;;;;5074195;28;20203;-48
2021/10/09 01:43:22;;;;;;;10.02;7.95;;;5.40;99.90;;;;;;5075833;28;20222;-43
2021/10/09 01:45:49;;;;;;;11.38;7.55;;;5.40;99.90;;;;;;5068250;28;20253;-52
2021/10/09 01:48:18;;;;;;;13.07;6.88;;;5.50;99.90;;;;;;5068703;28;20200;-44
2021/10/09 01:50:45;;;;;;;10.57;8.25;;;5.40;99.90;;;;;;5072855;28;20241;-42
2021/10/09 01:53:12;;;;;;;11.30;7.00;;;5.40;99.90;;;;;;5078178;28;20552;-44
2021/10/09 01:55:40;;;;;;;17.38;8.63;;;5.30;99.90;;;;;;5067925;28;20202;-50
2021/10/09 01:58:08;;;;;;;10.50;7.45;;;5.30;99.90;;;;;;5064993;28;20433;-47
2021/10/09 02:00:35;;;;;;;9.07;7.68;;;5.20;99.90;;;;;;5067341;28;20195;-45
2021/10/09 02:03:05;;;;;;;18.60;8.30;;;5.20;99.90;;;;;;5073301;28;20249;-50
2021/10/09 02:05:35;;;;;;;9.77;6.88;;;5.20;99.90;;;;;;5065382;28;20202;-50
2021/10/09 02:08:04;;;;;;;10.48;8.05;;;5.20;99.90;;;;;;5070439;28;20246;-44
2021/10/09 02:10:34;;;;;;;9.05;7.82;;;5.10;99.90;;;;;;5086403;28;20265;-44
2021/10/09 02:13:04;;;;;;;10.48;6.20;;;5.20;99.90;;;;;;5094095;28;20396;-51
2021/10/09 02:15:42;;;;;;;7.80;6.78;;;5.20;99.90;;;;;;5097579;28;20452;-44
2021/10/09 02:26:14;;;;;;;10.38;8.55;;;5.00;99.90;;;;;;5095168;28;20226;-48
2021/10/09 02:28:41;;;;;;;9.88;7.05;;;5.00;99.90;;;;;;5091965;28;20201;-45
2021/10/09 02:31:09;;;;;;;12.52;7.88;;;5.00;99.90;;;;;;5073800;28;20566;-47
2021/10/09 02:33:36;;;;;;;8.70;7.55;;;5.00;99.90;;;;;;5094157;28;20220;-44
2021/10/09 02:36:03;;;;;;;9.45;7.53;;;5.00;99.90;;;;;;5074725;28;20198;-47
2021/10/09 02:38:30;;;;;;;13.63;8.55;;;5.00;99.90;;;;;;5088038;28;20255;-45
2021/10/09 02:40:58;;;;;;;8.13;7.22;;;5.00;99.90;;;;;;5064520;28;20190;-43
2021/10/09 02:43:25;;;;;;;9.05;6.95;;;4.80;99.90;;;;;;5092624;28;20216;-44
2021/10/09 02:45:52;;;;;;;11.60;7.80;;;4.90;99.90;;;;;;5069580;28;20248;-44
2021/10/09 02:48:19;;;;;;;10.80;9.55;;;4.90;99.90;;;;;;5076798;28;20225;-45
2021/10/09 02:50:47;;;;;;;12.00;9.32;;;4.90;99.90;;;;;;5066444;28;20433;-45
2021/10/09 02:53:14;;;;;;;15.95;8.00;;;4.70;99.90;;;;;;5066604;28;20351;-51
2021/10/09 02:55:41;;;;;;;10.77;7.45;;;4.80;99.90;;;;;;5061875;28;20207;-48
2021/10/09 02:58:08;;;;;;;8.35;7.10;;;4.70;99.90;;;;;;5061841;28;20232;-46
2021/10/09 03:00:36;;;;;;;10.30;7.40;;;4.70;99.90;;;;;;5068380;28;20191;-46
2021/10/09 03:03:03;;;;;;;13.38;8.60;;;4.80;99.90;;;;;;5066955;28;20264;-50
2021/10/09 03:05:30;;;;;;;12.02;7.20;;;4.80;99.90;;;;;;5068026;28;20233;-47
2021/10/09 03:07:57;;;;;;;9.18;7.80;;;4.90;99.90;;;;;;5065159;28;20210;-49
2021/10/09 03:10:26;;;;;;;10.93;7.40;;;4.80;99.90;;;;;;5063273;28;20263;-51
2021/10/09 03:12:54;;;;;;;11.05;6.85;;;4.80;99.90;;;;;;5068284;28;20307;-45
2021/10/09 03:15:21;;;;;;;11.38;7.65;;;4.80;99.90;;;;;;5073175;28;20199;-47
2021/10/09 03:17:49;;;;;;;9.02;7.40;;;4.70;99.90;;;;;;5075359;28;20222;-48
2021/10/09 03:20:16;;;;;;;11.18;8.13;;;4.70;99.90;;;;;;5064369;28;20273;-52
2021/10/09 03:22:45;;;;;;;14.30;8.07;;;4.60;99.90;;;;;;5067143;28;20273;-44
2021/10/09 03:25:14;;;;;;;10.50;8.30;;;4.70;99.90;;;;;;5069707;28;20527;-45
2021/10/09 03:27:41;;;;;;;10.27;8.35;;;4.70;99.90;;;;;;5066113;28;20203;-44
2021/10/09 03:30:09;;;;;;;11.82;7.50;;;4.60;99.90;;;;;;5069806;28;20216;-44
2021/10/09 03:32:37;;;;;;;12.48;8.57;;;4.60;99.90;;;;;;5065764;28;20221;-44
2021/10/09 03:35:06;;;;;;;10.20;7.75;;;4.60;99.90;;;;;;5076723;28;20201;-46
2021/10/09 03:37:34;;;;;;;14.38;8.77;;;4.50;99.90;;;;;;5078379;28;20280;-44
2021/10/09 03:40:04;;;;;;;10.00;8.30;;;4.60;99.90;;;;;;5079455;28;20501;-44
2021/10/09 03:42:44;;;;;;;13.57;10.02;;;4.60;99.90;;;;;;5073604;28;20222;-51
2021/10/09 03:50:19;;;;;;;21.90;9.55;;;4.40;99.90;;;;;;5066786;28;20205;-47
2021/10/09 03:52:47;;;;;;;9.55;7.68;;;4.40;99.90;;;;;;5071982;28;20396;-49
2021/10/09 03:55:16;;;;;;;10.98;7.95;;;4.30;99.90;;;;;;5075651;28;20216;-47
2021/10/09 03:57:44;;;;;;;10.13;7.55;;;4.30;99.90;;;;;;5082449;28;20342;-47
2021/10/09 04:00:14;;;;;;;9.95;8.25;;;4.30;99.90;;;;;;5071867;28;20282;-53
2021/10/09 04:02:42;;;;;;;8.85;7.97;;;4.30;99.90;;;;;;5068016;28;20228;-47
2021/10/09 04:05:09;;;;;;;11.45;9.32;;;4.20;99.90;;;;;;5081146;28;20255;-45
2021/10/09 04:07:37;;;;;;;9.20;7.90;;;4.30;99.90;;;;;;5065088;28;20197;-46
2021/10/09 04:10:05;;;;;;;13.18;10.13;;;4.40;99.90;;;;;;5071387;28;20197;-47
2021/10/09 04:12:33;;;;;;;10.32;7.95;;;4.30;99.90;;;;;;5062976;28;20271;-43
2021/10/09 04:15:00;;;;;;;10.70;9.07;;;4.40;99.90;;;;;;5072765;28;20201;-48
2021/10/09 04:17:28;;;;;;;8.27;7.45;;;4.30;99.90;;;;;;5075095;28;20202;-46
2021/10/09 04:19:55;;;;;;;13.63;9.52;;;4.20;99.90;;;;;;5073578;28;20430;-48
2021/10/09 04:22:22;;;;;;;11.38;8.60;;;4.30;99.90;;;;;;5070729;28;20217;-44
2021/10/09 04:24:49;;;;;;;12.40;9.07;;;4.30;99.90;;;;;;5067218;28;20195;-45
2021/10/09 04:27:17;;;;;;;16.35;9.00;;;4.40;99.90;;;;;;5069731;28;20199;-44
2021/10/09 04:29:44;;;;;;;15.40;8.88;;;4.30;99.90;;;;;;5064986;28;20202;-49
2021/10/09 04:32:11;;;;;;;10.52;8.45;;;4.30;99.90;;;;;;5068584;28;20229;-50
2021/10/09 04:34:38;;;;;;;9.80;8.00;;;4.30;99.90;;;;;;5070673;28;20247;-44
2021/10/09 04:37:06;;;;;;;9.13;8.18;;;4.20;99.90;;;;;;5067096;28;20256;-50
2021/10/09 04:39:33;;;;;;;14.95;8.35;;;4.20;99.90;;;;;;5074150;28;20486;-45
2021/10/09 04:42:02;;;;;;;10.90;7.18;;;4.10;99.90;;;;;;5081245;28;20409;-51
2021/10/09 04:44:29;;;;;;;14.68;8.27;;;4.10;99.90;;;;;;5071617;28;20562;-44
2021/10/09 04:46:56;;;;;;;8.95;8.05;;;4.00;99.90;;;;;;5079562;28;20208;-45
2021/10/09 04:49:24;;;;;;;15.18;8.50;;;4.10;99.90;;;;;;5077752;28;20500;-50
2021/10/09 04:51:51;;;;;;;9.10;7.95;;;4.00;99.90;;;;;;5071508;28;20205;-55
2021/10/09 04:54:18;;;;;;;9.93;7.75;;;4.10;99.90;;;;;;5070891;28;20558;-45
2021/10/09 04:56:45;;;;;;;13.30;8.00;;;4.20;99.90;;;;;;5074811;28;20504;-45
2021/10/09 04:59:13;;;;;;;8.77;7.88;;;4.10;99.90;;;;;;5079080;28;20229;-45
2021/10/09 05:01:40;;;;;;;9.93;9.00;;;4.10;99.90;;;;;;5076745;28;20220;-47
2021/10/09 05:04:07;;;;;;;21.85;9.38;;;3.90;99.90;;;;;;5066095;28;20418;-43
2021/10/09 05:06:34;;;;;;;11.60;8.00;;;4.00;99.90;;;;;;5074776;28;20197;-53
2021/10/09 05:09:03;;;;;;;12.48;8.40;;;4.00;99.90;;;;;;5070943;28;20236;-47
2021/10/09 05:11:30;;;;;;;13.95;10.00;;;4.00;99.90;;;;;;5068197;28;20248;-49
2021/10/09 05:13:57;;;;;;;11.65;8.35;;;4.00;99.90;;;;;;5078370;28;20228;-47
2021/10/09 05:16:24;;;;;;;17.02;10.80;;;4.00;99.90;;;;;;5081583;28;20561;-48
2021/10/09 05:18:52;;;;;;;17.60;8.43;;;4.10;99.90;;;;;;5071952;28;20456;-45
2021/10/09 05:21:19;;;;;;;13.65;8.52;;;4.10;99.90;;;;;;5069861;28;20201;-47
2021/10/09 05:23:46;;;;;;;12.80;9.38;;;4.00;99.90;;;;;;5069879;28;20262;-40
2021/10/09 05:26:13;;;;;;;13.57;9.85;;;4.00;99.90;;;;;;5070128;28;20213;-49
2021/10/09 05:28:43;;;;;;;12.00;9.30;;;3.90;99.90;;;;;;5079075;28;20201;-47
2021/10/09 05:31:20;;;;;;;15.65;10.40;;;3.90;99.90;;;;;;5072607;28;20251;-51
2021/10/09 05:33:49;;;;;;;14.80;9.70;;;4.00;99.90;;;;;;5063434;28;20228;-48
2021/10/09 05:36:16;;;;;;;15.80;8.88;;;4.00;99.90;;;;;;5077821;28;20227;-47
2021/10/09 05:38:43;;;;;;;12.43;9.65;;;4.00;99.90;;;;;;5063358;28;20552;-42
2021/10/09 05:41:10;;;;;;;31.20;9.60;;;4.10;99.90;;;;;;5068447;28;20431;-45
2021/10/09 05:43:38;;;;;;;13.43;10.20;;;4.20;99.90;;;;;;5061149;28;20429;-48
2021/10/09 05:46:05;;;;;;;13.55;9.55;;;4.20;99.90;;;;;;5070500;28;20681;-48
2021/10/09 05:48:37;;;;;;;11.65;9.77;;;4.20;99.90;;;;;;5081911;28;20430;-49
2021/10/09 05:56:12;;;;;;;13.55;9.98;;;4.30;99.90;;;;;;5066124;28;20238;-46
2021/10/09 05:58:51;;;;;;;11.45;7.95;;;4.30;99.90;;;;;;5066568;28;20213;-48
2021/10/09 07:01:08;;;;;;;20.67;10.52;;;6.50;99.90;;;;;;5072541;28;20202;-44
2021/10/09 07:03:35;;;;;;;14.25;9.25;;;6.60;99.90;;;;;;5078966;28;20571;-49
2021/10/09 07:06:03;;;;;;;13.38;10.00;;;6.50;99.90;;;;;;5085287;28;20200;-45
2021/10/09 07:08:30;;;;;;;10.27;8.32;;;6.60;99.90;;;;;;5093219;28;20396;-49
2021/10/09 07:11:00;;;;;;;10.82;8.95;;;6.70;99.90;;;;;;5081822;28;20237;-47
2021/10/09 07:13:27;;;;;;;17.83;10.65;;;6.90;99.90;;;;;;5064773;28;20296;-48
2021/10/09 07:15:55;;;;;;;11.27;8.57;;;7.60;99.90;;;;;;5066825;28;20558;-46
2021/10/09 07:18:22;;;;;;;11.50;8.45;;;8.70;99.90;;;;;;5071544;28;20261;-45
2021/10/09 07:20:50;;;;;;;16.60;10.52;;;10.20;99.90;;;;;;5064449;28;20511;-48
2021/10/09 07:23:17;;;;;;;9.48;8.55;;;11.20;99.90;;;;;;5083395;28;20448;-49
2021/10/09 07:25:44;;;;;;;9.18;8.07;;;12.40;99.90;;;;;;5093935;28;20576;-45
2021/10/09 07:28:11;;;;;;;13.15;9.57;;;13.10;99.90;;;;;;5070606;28;20263;-53
2021/10/09 07:30:42;;;;;;;10.85;9.45;;;13.40;99.90;;;;;;5065125;28;20195;-45
2021/10/09 07:33:11;;;;;;;11.02;9.45;;;13.90;99.90;;;;;;5069374;28;20281;-45
2021/10/09 07:35:38;;;;;;;11.70;8.00;;;14.20;99.90;;;;;;5090580;28;20205;-44
2021/10/09 07:38:05;;;;;;;9.60;8.35;;;14.50;99.90;;;;;;5092223;28;20432;-47
2021/10/09 07:40:34;;;;;;;11.07;8.52;;;14.40;99.90;;;;;;5090372;28;20517;-46
2021/10/09 07:43:01;;;;;;;9.10;8.20;;;15.10;99.80;;;;;;5072301;28;20247;-47
2021/10/09 07:45:28;;;;;;;10.30;9.35;;;16.00;97.80;;;;;;5068834;28;20571;-45
2021/10/09 07:47:55;;;;;;;15.27;8.87;;;16.20;97.10;;;;;;5077041;28;20563;-47
2021/10/09 07:50:22;;;;;;;10.30;9.17;;;15.50;97.20;;;;;;5073373;28;20441;-44
2021/10/09 07:52:49;;;;;;;9.87;8.97;;;15.90;96.90;;;;;;5067827;28;20440;-47
2021/10/09 07:55:16;;;;;;;10.97;9.80;;;17.00;95.40;;;;;;5074314;28;20778;-46
2021/10/09 07:57:44;;;;;;;10.90;9.33;;;16.90;94.50;;;;;;5075084;28;20404;-45
2021/10/09 08:00:11;;;;;;;9.97;9.00;;;16.50;94.10;;;;;;5077060;28;20498;-48
2021/10/09 08:02:49;;;;;;;9.67;8.80;;;16.00;94.80;;;;;;5078252;28;20452;-45
2021/10/09 08:05:17;;;;;;;12.10;9.50;;;17.20;93.60;;;;;;5070875;28;21222;-45
2021/10/09 08:07:45;;;;;;;9.73;8.73;;;17.40;92.70;;;;;;5067813;28;20407;-45
2021/10/09 08:10:12;;;;;;;12.53;9.10;;;16.90;92.90;;;;;;5072693;28;20495;-47
2021/10/09 08:12:39;;;;;;;11.30;10.10;;;17.30;92.70;;;;;;5059898;28;20444;-49
2021/10/09 08:15:07;;;;;;;14.93;10.13;;;16.10;93.90;;;;;;5068174;28;20416;-44
2021/10/09 08:17:37;;;;;;;12.03;10.50;;;16.00;94.40;;;;;;5072477;28;20476;-48
2021/10/09 08:20:05;;;;;;;10.87;9.77;;;15.70;94.70;;;;;;5080726;28;20473;-48
2021/10/09 08:22:37;;;;;;;13.87;10.70;;;16.00;94.80;;;;;;5070638;28;20509;-47
2021/10/09 08:25:39;;;;;;;9.70;8.77;;;17.00;92.60;;;;;;5070502;28;20409;-45
2021/10/09 08:41:12;;;;;;;11.73;10.63;;;15.50;95.10;;;;;;5074731;28;20507;-48
2021/10/09 08:43:49;;;;;;;9.40;8.70;;;16.30;94.20;;;;;;5054308;28;20232;-50
2021/10/09 08:46:18;;;;;;;9.33;8.43;;;16.80;93.50;;;;;;5079844;28;20441;-47
2021/10/09 08:48:52;;;;;;;12.57;10.63;;;16.70;92.90;;;;;;5076609;28;20506;-42
2021/10/09 08:51:24;;;;;;;11.20;10.10;;;16.30;93.70;;;;;;5074496;28;20759;-53
2021/10/09 08:53:54;;;;;;;9.50;8.60;;;16.90;93.30;;;;;;5065246;28;20485;-50
2021/10/09 08:56:32;;;;;;;13.83;9.27;;;18.00;91.50;;;;;;5076346;28;20635;-42
2021/10/09 08:59:07;;;;;;;10.20;9.23;;;18.20;90.80;;;;;;5075740;28;20454;-50
2021/10/09 09:01:41;;;;;;;9.80;8.80;;;17.00;91.40;;;;;;5076311;28;20440;-47
2021/10/09 09:25:48;;;;;;;8.05;7.20;;;12.90;98.10;;;;;;5081727;28;20195;-46
2021/10/09 09:33:44;;;;;;;10.57;7.75;;;12.60;98.30;;;;;;5084022;28;20218;-49
2021/10/09 09:39:03;;;;;;;8.02;7.20;;;12.30;97.90;;;;;;5082017;28;20199;-43
2021/10/09 09:41:48;;;;;;;8.20;6.50;;;12.30;98.60;;;;;;5082368;28;20211;-44
2021/10/09 09:44:19;;;;;;;8.05;6.75;;;12.10;98.70;;;;;;5082744;28;20255;-52
2021/10/09 09:47:31;;;;;;;8.63;7.78;;;12.10;97.50;;;;;;5080003;28;20205;-47
2021/10/09 09:50:00;;;;;;;8.10;6.97;;;12.30;97.30;;;;;;5043346;28;20435;-45
2021/10/09 09:52:27;;;;;;;7.22;6.53;;;12.50;96.50;;;;;;5081959;28;20226;-45
2021/10/09 09:54:56;;;;;;;6.20;5.63;;;12.40;96.40;;;;;;5081453;28;20447;-49
2021/10/09 09:57:28;;;;;;;6.18;5.57;;;12.40;96.50;;;;;;5081837;28;20253;-43
2021/10/09 09:59:57;;;;;;;6.30;5.70;;;12.40;96.70;;;;;;5080108;28;20261;-48
2021/10/09 10:02:28;;;;;;;5.85;5.45;;;12.60;96.40;;;;;;5083210;28;20223;-48
2021/10/09 10:05:04;;;;;;;5.65;5.20;;;12.60;95.70;;;;;;5089298;28;20258;-44
2021/10/09 10:07:35;;;;;;;7.75;7.00;;;12.60;95.60;;;;;;5072034;28;20209;-48
2021/10/09 10:10:03;;;;;;;5.57;5.15;;;12.60;94.90;;;;;;5089930;28;20209;-43
2021/10/09 10:12:32;;;;;;;5.90;5.40;;;12.60;95.30;;;;;;5087660;28;20485;-45
2021/10/09 10:15:00;;;;;;;6.30;5.88;;;12.60;95.60;;;;;;5089700;28;20501;-44
2021/10/09 10:17:43;;;;;;;8.00;7.22;;;12.70;95.40;;;;;;5085533;28;20211;-43
2021/10/09 10:20:13;;;;;;;6.03;5.43;;;12.70;95.70;;;;;;5091018;28;20222;-47
2021/10/09 10:22:40;;;;;;;5.63;5.28;;;12.80;95.10;;;;;;5069499;28;20214;-54
2021/10/09 10:25:34;;;;;;;5.00;4.70;;;12.80;95.30;;;;;;5082914;28;20203;-46
2021/10/09 10:28:14;;;;;;;5.63;5.15;;;12.60;94.50;;;;;;5084120;28;20245;-50
2021/10/09 10:30:46;;;;;;;6.70;6.03;;;12.40;94.60;;;;;;5082740;28;20248;-49
2021/10/09 10:33:19;;;;;;;6.97;6.30;;;12.40;94.40;;;;;;5087473;28;20610;-48
2021/10/09 10:35:47;;;;;;;7.90;5.72;;;12.50;95.10;;;;;;5075458;28;20249;-43
2021/10/09 10:38:21;;;;;;;5.70;5.25;;;12.60;94.40;;;;;;5080171;28;20281;-49
2021/10/09 10:41:05;;;;;;;5.32;4.90;;;12.60;94.10;;;;;;5094426;28;20221;-48
2021/10/09 10:46:40;;;;;;;6.60;5.90;;;12.60;94.30;;;;;;5069718;28;20217;-45
2021/10/09 10:51:41;;;;;;;6.57;5.97;;;12.50;94.20;;;;;;5088470;28;20228;-43
2021/10/09 10:56:59;;;;;;;5.65;5.28;;;12.40;94.10;;;;;;5080351;28;20206;-45
2021/10/09 10:59:46;;;;;;;5.68;5.18;;;12.40;94.30;;;;;;5079145;28;20280;-50
2021/10/09 11:02:14;;;;;;;7.95;5.68;;;12.40;93.80;;;;;;5083829;28;20272;-47
2021/10/09 11:04:50;;;;;;;5.75;5.35;;;12.50;94.00;;;;;;5086722;28;20201;-48
2021/10/09 11:07:18;;;;;;;7.00;5.50;;;12.60;93.40;;;;;;5072635;28;20233;-46
2021/10/09 11:09:46;;;;;;;8.88;7.13;;;12.50;93.30;;;;;;5078456;28;20324;-43
2021/10/09 11:12:29;;;;;;;7.15;6.45;;;12.40;93.50;;;;;;5093520;28;20738;-50
2021/10/09 11:15:20;;;;;;;7.00;6.32;;;12.50;93.70;;;;;;5077106;28;20217;-52
2021/10/09 11:17:56;;;;;;;9.02;6.82;;;12.60;93.60;;;;;;5084617;28;20245;-44
2021/10/09 11:20:26;;;;;;;7.47;6.60;;;12.60;93.40;;;;;;5074131;28;20257;-44
2021/10/09 11:22:58;;;;;;;7.20;6.68;;;12.60;93.40;;;;;;5067110;28;20264;-45
2021/10/09 11:25:27;;;;;;;8.32;6.03;;;12.50;93.80;;;;;;5070232;28;20282;-45
2021/10/09 11:27:56;;;;;;;6.50;5.93;;;12.50;94.00;;;;;;5071246;28;20240;-45
2021/10/09 11:30:24;;;;;;;7.95;7.25;;;12.60;93.40;;;;;;5062363;28;20199;-49
2021/10/09 11:32:54;;;;;;;8.55;7.75;;;12.60;94.00;;;;;;5068408;28;20230;-44
2021/10/09 11:35:32;;;;;;;6.45;6.05;;;12.70;94.50;;;;;;5071556;28;20208;-46
2021/10/09 11:38:02;;;;;;;9.07;8.07;;;12.80;94.30;;;;;;5075476;28;20199;-43
2021/10/09 11:41:25;;;;;;;7.85;6.45;;;12.80;94.10;;;;;;5063430;28;20241;-50
2021/10/09 11:43:50;;;;;;;7.65;6.85;;;12.80;93.90;;;;;;5052366;28;20226;-45
2021/10/09 11:55:19;;;;;;;7.35;6.65;;;12.70;95.10;;;;;;5082142;28;20228;-46
2021/10/09 11:57:48;;;;;;;8.10;7.35;;;12.60;95.40;;;;;;5081212;28;20229;-49
2021/10/09 12:00:28;;;;;;;7.18;6.55;;;12.80;95.40;;;;;;5082831;28;20274;-50
2021/10/09 12:03:22;;;;;;;10.30;7.53;;;13.00;93.60;;;;;;5082077;28;20222;-42
2021/10/09 12:06:10;;;;;;;7.50;6.75;;;13.00;93.80;;;;;;5081122;28;20403;-45
2021/10/09 12:09:08;;;;;;;6.97;6.30;;;13.00;93.80;;;;;;5080998;28;20529;-47
2021/10/09 12:11:36;;;;;;;7.40;6.30;;;12.90;93.70;;;;;;5067502;28;20263;-44
2021/10/09 12:14:06;;;;;;;9.55;7.10;;;12.80;94.00;;;;;;5083121;28;20565;-44
2021/10/09 12:16:46;;;;;;;7.93;6.60;;;12.80;94.30;;;;;;5083985;28;20256;-44
2021/10/09 12:19:26;;;;;;;7.40;6.80;;;12.90;93.90;;;;;;5083813;28;20420;-39
2021/10/09 12:21:53;;;;;;;6.80;6.20;;;12.80;93.70;;;;;;5083028;28;20233;-49
2021/10/09 12:24:29;;;;;;;6.82;6.15;;;12.70;93.80;;;;;;5081022;28;20214;-51
2021/10/09 12:27:04;;;;;;;7.00;6.40;;;12.70;93.60;;;;;;5082228;28;20194;-43
2021/10/09 12:29:35;;;;;;;6.70;6.20;;;12.70;93.50;;;;;;5080126;28;20202;-46
2021/10/09 12:32:21;;;;;;;7.07;6.57;;;12.70;93.80;;;;;;5083331;28;20195;-42
2021/10/09 12:35:13;;;;;;;6.13;5.72;;;12.80;93.20;;;;;;5087830;28;20190;-48
2021/10/09 12:37:56;;;;;;;8.60;6.38;;;12.80;93.20;;;;;;5078547;28;20239;-49
2021/10/09 12:40:26;;;;;;;7.13;6.53;;;12.90;93.10;;;;;;5087145;28;20229;-50
2021/10/09 12:42:56;;;;;;;6.07;5.57;;;12.90;92.60;;;;;;5081223;28;20218;-50
2021/10/09 12:45:26;;;;;;;9.07;5.10;;;13.00;92.00;;;;;;5086700;28;20272;-47
2021/10/09 12:47:58;;;;;;;9.05;5.78;;;12.90;91.60;;;;;;5085371;28;20203;-45
2021/10/09 12:50:29;;;;;;;5.88;5.32;;;12.90;92.00;;;;;;5092849;28;20474;-51
2021/10/09 12:52:56;;;;;;;6.45;5.95;;;13.00;91.90;;;;;;5084837;28;20279;-53
2021/10/09 12:55:26;;;;;;;6.95;5.95;;;13.10;91.60;;;;;;5093887;28;20201;-47
2021/10/09 12:57:58;;;;;;;6.13;5.47;;;13.10;91.00;;;;;;5084924;28;20203;-51
2021/10/09 13:00:29;;;;;;;5.97;5.47;;;13.10;90.80;;;;;;5074999;28;20249;-49
2021/10/09 13:02:57;;;;;;;12.55;6.72;;;13.10;91.30;;;;;;5086619;28;20230;-47
2021/10/09 13:05:28;;;;;;;12.40;6.43;;;13.10;91.30;;;;;;5086500;28;20428;-45
2021/10/09 13:07:58;;;;;;;5.55;5.15;;;13.10;91.80;;;;;;5090245;28;20198;-43
2021/10/09 13:10:26;;;;;;;6.90;6.22;;;13.10;91.80;;;;;;5090336;28;20205;-51
2021/10/09 13:12:53;;;;;;;6.53;5.72;;;13.00;91.60;;;;;;5088659;28;20230;-45
2021/10/09 13:15:20;;;;;;;7.90;5.90;;;13.10;91.50;;;;;;5078158;28;20505;-48
2021/10/09 13:17:49;;;;;;;6.40;5.80;;;13.00;90.40;;;;;;5083658;28;20509;-44
2021/10/09 13:20:18;;;;;;;5.72;5.30;;;12.90;90.80;;;;;;5090220;28;20552;-48
2021/10/09 13:22:45;;;;;;;6.18;5.57;;;12.90;91.50;;;;;;5091565;28;20521;-47
2021/10/09 13:25:28;;;;;;;7.00;6.40;;;12.90;91.90;;;;;;5076798;28;20200;-48
2021/10/09 13:27:55;;;;;;;5.53;5.13;;;13.00;91.60;;;;;;5090747;28;20190;-43
2021/10/09 13:30:22;;;;;;;7.72;7.03;;;13.00;91.50;;;;;;5095001;28;20243;-45
2021/10/09 13:32:49;;;;;;;6.63;5.95;;;13.00;91.40;;;;;;5082428;28;20222;-46
2021/10/09 13:35:17;;;;;;;6.10;5.65;;;13.00;91.30;;;;;;5077877;28;20444;-47
2021/10/09 13:37:52;;;;;;;6.75;6.18;;;13.00;91.30;;;;;;5075084;28;20521;-44
2021/10/09 13:40:19;;;;;;;6.38;5.88;;;12.90;91.20;;;;;;5074576;28;20218;-46
2021/10/09 13:42:47;;;;;;;5.72;5.22;;;12.90;91.30;;;;;;5081630;28;20256;-43
2021/10/09 13:45:15;;;;;;;7.60;6.90;;;13.00;91.40;;;;;;5080820;28;20203;-47
2021/10/09 13:47:43;;;;;;;6.13;5.55;;;12.90;91.60;;;;;;5079820;28;20195;-50
2021/10/09 13:50:12;;;;;;;5.90;5.40;;;12.80;91.20;;;;;;5076935;28;20257;-45
2021/10/09 13:52:40;;;;;;;7.85;5.50;;;12.70;91.40;;;;;;5078540;28;20609;-45
2021/10/09 13:55:08;;;;;;;6.97;6.28;;;12.80;91.60;;;;;;5078502;28;20214;-46
2021/10/09 13:57:36;;;;;;;6.43;5.90;;;12.80;91.90;;;;;;5077807;28;20205;-50
2021/10/09 14:00:04;;;;;;;8.20;6.00;;;12.80;92.00;;;;;;5076266;28;20205;-47
2021/10/09 14:02:31;;;;;;;5.80;5.40;;;12.80;92.10;;;;;;5074766;28;20218;-45
2021/10/09 14:04:59;;;;;;;7.45;6.15;;;12.80;92.50;;;;;;5079560;28;20498;-47
2021/10/09 14:07:27;;;;;;;6.85;6.18;;;12.80;91.90;;;;;;5076128;28;20205;-46
2021/10/09 14:09:54;;;;;;;6.53;6.03;;;12.70;92.30;;;;;;5072409;28;20523;-52
2021/10/09 14:12:22;;;;;;;5.57;5.07;;;12.70;92.50;;;;;;5079019;28;20222;-46
2021/10/09 14:14:49;;;;;;;5.70;5.30;;;12.60;92.90;;;;;;5080122;28;20222;-46
2021/10/09 14:17:16;;;;;;;5.45;5.00;;;12.60;92.70;;;;;;5077221;28;20530;-45
2021/10/09 14:19:57;;;;;;;6.95;5.55;;;12.90;92.40;;;;;;5073548;28;20217;-43
2021/10/09 14:22:26;;;;;;;6.68;6.13;;;12.80;92.30;;;;;;5078341;28;20264;-48
2021/10/09 14:24:53;;;;;;;6.53;6.05;;;12.80;92.60;;;;;;5079176;28;20393;-46
2021/10/09 14:27:23;;;;;;;6.55;5.95;;;12.80;92.60;;;;;;5078973;28;20444;-49
2021/10/09 14:29:50;;;;;;;6.60;6.00;;;12.80;93.20;;;;;;5080700;28;20186;-45
2021/10/09 14:32:17;;;;;;;5.68;5.28;;;12.60;93.10;;;;;;5081836;28;20219;-52
2021/10/09 14:34:44;;;;;;;6.30;5.78;;;12.60;93.40;;;;;;5081333;28;20199;-43
2021/10/09 14:37:12;;;;;;;5.88;5.38;;;12.70;93.20;;;;;;5074361;28;20203;-47
2021/10/09 14:39:39;;;;;;;6.03;5.53;;;12.70;93.60;;;;;;5077474;28;20517;-48
2021/10/09 14:42:07;;;;;;;7.75;6.90;;;12.60;93.60;;;;;;5076192;28;20597;-52
2021/10/09 14:44:34;;;;;;;6.43;5.40;;;12.60;94.20;;;;;;5075954;28;20229;-44
2021/10/09 14:54:50;;;;;;;8.48;7.10;;;12.60;93.50;;;;;;5077489;28;20424;-48
2021/10/09 15:16:53;;;;;;;6.55;5.88;;;12.40;93.60;;;;;;5023148;28;20206;-46
2021/10/09 15:19:20;;;;;;;7.63;6.15;;;12.20;94.30;;;;;;5066309;28;20515;-49
2021/10/09 15:21:49;;;;;;;8.23;5.47;;;12.20;94.00;;;;;;5067593;28;20229;-48
2021/10/09 15:24:16;;;;;;;5.28;4.78;;;12.20;94.10;;;;;;5064019;28;20214;-50
2021/10/09 15:26:44;;;;;;;6.13;5.53;;;12.20;94.30;;;;;;5065234;28;20252;-44
2021/10/09 15:29:12;;;;;;;6.65;5.88;;;12.20;94.50;;;;;;5063427;28;20313;-44
2021/10/09 15:31:40;;;;;;;6.10;5.00;;;12.10;95.00;;;;;;5069206;28;20203;-48
2021/10/09 15:34:08;;;;;;;5.47;4.97;;;12.10;95.10;;;;;;5065465;28;20226;-48
2021/10/09 15:36:37;;;;;;;6.20;5.70;;;12.10;94.90;;;;;;5074104;28;20436;-47
2021/10/09 15:39:04;;;;;;;7.43;5.53;;;12.10;95.00;;;;;;5065624;28;20293;-45
2021/10/09 15:41:32;;;;;;;5.95;5.45;;;12.10;94.80;;;;;;5069846;28;20234;-51
2021/10/09 15:43:59;;;;;;;5.50;5.10;;;12.10;94.60;;;;;;5073118;28;20418;-46
2021/10/09 15:46:27;;;;;;;6.80;6.13;;;12.00;94.40;;;;;;5066105;28;20197;-47